ESSA/ARN METAR and TAF weather

Enter ICAO airport designator
Station Type Date Time Source
ESSA METAR 2019/05/19 20:20 UTC NOAA

ESSA 192020Z 08005KT 6000 FEW002 15/14 Q1014 BECMG NSC


Station Type Date Time Source
ESSA Decoded METAR 2019/05/19 20:20 UTC NOAA

Stockholm / Arlanda, Sweden (ESSA) 59-39N 017-57E 61M
May 19, 2019 - 04:20 PM EDT / 2019.05.19 2020 UTC
Wind: from the E (080 degrees) at 6 MPH (5 KT):0
Visibility: 3 mile(s):0
Sky conditions: mostly clear
Temperature: 59 F (15 C)
Dew Point: 57 F (14 C)
Relative Humidity: 93%
Pressure (altimeter): 29.94 in. Hg (1014 hPa)
ob: ESSA 192020Z 08005KT 6000 FEW002 15/14 Q1014 BECMG NSC
cycle: 20

Station Type Date Time Source
ESSA TAF 2019/05/19 19:24 UTC NOAA

TAF
AMD ESSA 191919Z 1919/2018 08005KT 9999 BKN040
TEMPO 1919/1921 BKN004

Example: see airport list